Capitol Logistics 1816

Operating for CJT



CYHM
John C. Munro Hamilton International Airport
Hamilton, CA
CYQM
Greater Moncton International Airport
Moncton, CA

Activity Log

Date Flight Route Aircraft Duration
12/09/2021 CPX1816 SN UKPAG SANIN Q951 YQM B738 1h 54m
11/06/2021 CPX1816 SN UKPAG SANIN Q951 YQM B752 1h 51m

Route Details

Aircraft Information
Group: North America Fleet
Types: B738,B752,B762,B763
Route Data
Demand: V
Distance: 675nm
Duration: 1h 31m
Recm'd Route: SN UKPAG SANIN Q951 YQM
Origin Wx: CYHM 242000Z 03012G19KT 15SM FEW040 FEW220 16/06 A3025 RMK CF1CI2 CF TR SLP248 DENSITY ALT 800FT
Dest. Wx: CYQM 242000Z 06013G18KT 020V080 15SM FEW120 BKN270 15/M00 A3033 RMK AC1CI6 AC TR SLP276
Notes:

Financial History
Total Freight: 59,991lbs
Average Load: 29,996lbs/flt
Fuel Used: 23,728lbs
Avg. Fuel Used: 11,864lbs/flt
Fuel Expense: $8,374
Avg. Fuel Expense: $4,187
Avg. Fuel Cost: $0.35/lbs
Total Gross Income: $148,778
Pilot Pay: $408
Total Expenses: $19,543
Total Revenue: $120,237
Average Revenue: $74,388.84